createdAt,value
2022-11-01T00:01:21.982Z,100682.63
2022-11-01T00:03:53.494Z,100689.72
2022-11-01T00:06:25.810Z,100687.97
2022-11-01T00:08:57.590Z,100681.78
2022-11-01T00:11:29.412Z,100680.03
2022-11-01T00:14:01.180Z,100672.25
2022-11-01T00:16:33.322Z,100668.69
2022-11-01T00:19:04.789Z,100669.34
2022-11-01T00:21:36.552Z,100671.97
2022-11-01T00:24:08.467Z,100671.91
2022-11-01T00:26:40.479Z,100665.59
2022-11-01T00:29:12.920Z,100663.66
2022-11-01T00:31:44.340Z,100658.28
2022-11-01T00:34:16.762Z,100639.63
2022-11-01T00:36:48.348Z,100651.75
2022-11-01T00:39:20.223Z,100642.81
2022-11-01T00:41:51.767Z,100633.75
2022-11-01T00:44:23.099Z,100636.22
2022-11-01T00:46:54.447Z,100639.63
2022-11-01T00:49:25.796Z,100642.06
2022-11-01T00:51:58.686Z,100627.78
2022-11-01T00:54:30.311Z,100635.53
2022-11-01T00:57:03.484Z,100642.47
2022-11-01T00:59:38.313Z,100636.94
2022-11-01T01:02:12.448Z,100637.63
2022-11-01T01:04:45.309Z,100625.88
2022-11-01T01:07:18.260Z,100614.97
2022-11-01T01:09:49.712Z,100616.72
2022-11-01T01:12:23.590Z,100588.34
2022-11-01T01:14:55.535Z,100613.59
2022-11-01T01:17:31.262Z,100599.25
2022-11-01T01:20:08.283Z,100606.25
2022-11-01T01:22:41.537Z,100589.34
2022-11-01T01:25:13.292Z,100575.34
2022-11-01T01:27:47.324Z,100589.41
2022-11-01T01:30:19.250Z,100587.78
2022-11-01T01:32:51.647Z,100588.59
2022-11-01T01:35:23.497Z,100576.16
2022-11-01T01:37:55.248Z,100588.59
2022-11-01T01:40:28.030Z,100576.13
2022-11-01T01:43:00.195Z,100569.91
2022-11-01T01:45:40.443Z,100557.38
2022-11-01T01:48:26.509Z,100539.56
2022-11-01T01:51:03.745Z,100546.72
2022-11-01T01:53:40.864Z,100535.16
2022-11-01T01:56:20.637Z,100536.97
2022-11-01T01:58:57.441Z,100526.28
2022-11-01T02:01:29.735Z,100512.94
2022-11-01T02:04:04.040Z,100501.44
2022-11-01T02:06:36.704Z,100505.16
2022-11-01T02:09:09.769Z,100502.47
2022-11-01T02:11:43.591Z,100481.25
2022-11-01T02:14:21.176Z,100481.19
2022-11-01T02:16:58.319Z,100466.94
2022-11-01T02:19:50.049Z,100475.03
2022-11-01T02:22:53.309Z,100468.88
2022-11-01T02:25:46.619Z,100462.78
2022-11-01T02:28:43.177Z,100462.78
2022-11-01T02:31:26.731Z,100471.78
2022-11-01T02:34:12.907Z,100477.16
2022-11-01T02:36:49.295Z,100467.47
2022-11-01T02:39:23.504Z,100469.31
2022-11-01T02:42:27.766Z,100473.69
2022-11-01T02:45:08.106Z,100467.53
2022-11-01T02:47:40.606Z,100459.72
2022-11-01T02:50:11.933Z,100457.00
2022-11-01T02:52:44.301Z,100439.47
2022-11-01T02:55:33.501Z,100440.25
2022-11-01T02:58:09.930Z,100435.03
2022-11-01T03:00:42.921Z,100432.56
2022-11-01T03:03:31.740Z,100428.91
2022-11-01T03:06:07.478Z,100418.31
2022-11-01T03:08:49.432Z,100410.41
2022-11-01T03:11:33.211Z,100427.00
2022-11-01T03:14:23.325Z,100419.88
2022-11-01T03:17:07.760Z,100420.69
2022-11-01T03:20:15.129Z,100415.31
2022-11-01T03:22:56.658Z,100408.19
2022-11-01T03:25:44.410Z,100405.69
2022-11-01T03:28:39.452Z,100411.63
2022-11-01T03:31:24.972Z,100409.00
2022-11-01T03:33:59.768Z,100411.63
2022-11-01T03:36:41.384Z,100416.03
2022-11-01T03:39:23.907Z,100408.06
2022-11-01T03:42:01.589Z,100402.75
2022-11-01T03:44:44.036Z,100415.31
2022-11-01T03:47:16.292Z,100412.66
2022-11-01T03:49:49.536Z,100420.66
2022-11-01T03:52:22.545Z,100417.16
2022-11-01T03:54:54.110Z,100417.16
2022-11-01T03:57:27.012Z,100412.81
2022-11-01T04:00:01.320Z,100407.59
2022-11-01T04:02:32.972Z,100403.84
2022-11-01T04:05:06.351Z,100402.03
2022-11-01T04:07:39.104Z,100407.31
2022-11-01T04:10:12.551Z,100402.78
2022-11-01T04:12:46.459Z,100401.81
2022-11-01T04:15:38.115Z,100395.44
2022-11-01T04:18:38.326Z,100399.75
2022-11-01T04:21:15.250Z,100404.09
2022-11-01T04:23:49.044Z,100388.09
2022-11-01T04:26:23.425Z,100397.72
2022-11-01T04:28:58.022Z,100404.84
2022-11-01T04:31:33.130Z,100397.78
2022-11-01T04:34:05.942Z,100395.16
2022-11-01T04:36:38.426Z,100400.50
2022-11-01T04:39:10.518Z,100396.03
2022-11-01T04:41:42.248Z,100389.81
2022-11-01T04:44:13.898Z,100390.69
2022-11-01T04:46:45.734Z,100391.56
2022-11-01T04:49:17.266Z,100395.97
2022-11-01T04:51:49.007Z,100397.66
2022-11-01T04:54:22.155Z,100392.16
2022-11-01T04:56:53.811Z,100382.25
2022-11-01T04:59:26.890Z,100389.16
2022-11-01T05:01:59.051Z,100382.88
2022-11-01T05:04:31.420Z,100387.00
2022-11-01T05:07:02.897Z,100393.09
2022-11-01T05:09:34.332Z,100392.88
2022-11-01T05:12:06.125Z,100382.38
2022-11-01T05:14:37.681Z,100393.56
2022-11-01T05:17:09.232Z,100389.94
2022-11-01T05:19:40.827Z,100391.63
2022-11-01T05:22:12.128Z,100385.34
2022-11-01T05:24:43.658Z,100388.00
2022-11-01T05:27:15.061Z,100373.63
2022-11-01T05:29:46.584Z,100376.22
2022-11-01T05:32:18.098Z,100362.06
2022-11-01T05:34:49.772Z,100374.22
2022-11-01T05:37:24.552Z,100386.63
2022-11-01T05:39:59.288Z,100389.25
2022-11-01T05:42:30.622Z,100406.09
2022-11-01T05:45:01.976Z,100404.34
2022-11-01T05:47:33.463Z,100390.06
2022-11-01T05:50:05.198Z,100396.31
2022-11-01T05:52:36.843Z,100397.19
2022-11-01T05:55:09.521Z,100398.19
2022-11-01T05:57:40.916Z,100392.84
2022-11-01T06:00:12.644Z,100402.41
2022-11-01T06:02:44.009Z,100404.22
2022-11-01T06:05:15.471Z,100393.66
2022-11-01T06:07:46.793Z,100400.56
2022-11-01T06:10:18.198Z,100404.91
2022-11-01T06:12:49.544Z,100404.84
2022-11-01T06:15:20.895Z,100405.72
2022-11-01T06:17:57.270Z,100404.78
2022-11-01T06:20:30.533Z,100395.97
2022-11-01T06:23:07.604Z,100404.09
2022-11-01T06:25:38.874Z,100410.88
2022-11-01T06:28:10.367Z,100420.69
2022-11-01T06:30:43.873Z,100414.72
2022-11-01T06:33:15.127Z,100418.22
2022-11-01T06:35:46.683Z,100429.75
2022-11-01T06:38:18.002Z,100428.09
2022-11-01T06:40:49.428Z,100428.78
2022-11-01T06:43:20.857Z,100444.69
2022-11-01T06:45:52.416Z,100429.47
2022-11-01T06:48:23.804Z,100430.38
2022-11-01T06:50:55.773Z,100440.84
2022-11-01T06:53:27.243Z,100438.97
2022-11-01T06:56:02.862Z,100442.47
2022-11-01T06:58:34.199Z,100446.81
2022-11-01T07:01:05.690Z,100444.13
2022-11-01T07:03:37.167Z,100458.19
2022-11-01T07:06:08.711Z,100455.38
2022-11-01T07:08:39.996Z,100464.22
2022-11-01T07:11:11.369Z,100461.50
2022-11-01T07:13:43.082Z,100467.56
2022-11-01T07:16:14.512Z,100469.19
2022-11-01T07:18:46.182Z,100462.00
2022-11-01T07:21:17.615Z,100468.16
2022-11-01T07:23:49.306Z,100473.63
2022-11-01T07:26:21.483Z,100468.16
2022-11-01T07:28:52.867Z,100479.41
2022-11-01T07:31:25.376Z,100478.22
2022-11-01T07:33:56.713Z,100479.78
2022-11-01T07:36:28.005Z,100479.53
2022-11-01T07:38:59.558Z,100480.19
2022-11-01T07:41:31.082Z,100479.88
2022-11-01T07:44:02.524Z,100477.75
2022-11-01T07:46:33.844Z,100480.03
2022-11-01T07:49:05.158Z,100467.47
2022-11-01T07:51:36.520Z,100491.84
2022-11-01T07:54:07.873Z,100479.94
2022-11-01T07:56:39.232Z,100488.50
2022-11-01T07:59:10.567Z,100482.28
2022-11-01T08:01:42.020Z,100491.44
2022-11-01T08:04:13.455Z,100496.25
2022-11-01T08:06:46.939Z,100492.34
2022-11-01T08:09:21.863Z,100507.47
2022-11-01T08:11:53.198Z,100510.84
2022-11-01T08:14:24.515Z,100503.34
2022-11-01T08:17:00.549Z,100508.19
2022-11-01T08:19:31.887Z,100505.78
2022-11-01T08:22:03.210Z,100514.41
2022-11-01T08:24:34.480Z,100515.66
2022-11-01T08:27:05.878Z,100524.09
2022-11-01T08:29:37.184Z,100515.72
2022-11-01T08:32:08.555Z,100512.56
2022-11-01T08:34:39.954Z,100511.34
2022-11-01T08:37:11.316Z,100522.56
2022-11-01T08:39:42.670Z,100514.25
2022-11-01T08:42:14.082Z,100522.00
2022-11-01T08:44:45.574Z,100520.84
2022-11-01T08:47:16.968Z,100514.31
2022-11-01T08:49:48.360Z,100516.78
2022-11-01T08:52:19.711Z,100529.09
2022-11-01T08:54:51.497Z,100523.47
2022-11-01T08:57:22.828Z,100524.91
2022-11-01T08:59:54.207Z,100522.88
2022-11-01T09:02:25.762Z,100521.19
2022-11-01T09:04:57.283Z,100536.59
2022-11-01T09:07:29.760Z,100538.44
2022-11-01T09:10:01.282Z,100544.63
2022-11-01T09:12:32.919Z,100537.53
2022-11-01T09:15:05.779Z,100534.94
2022-11-01T09:17:37.632Z,100534.53
2022-11-01T09:20:09.544Z,100543.75
2022-11-01T09:22:41.153Z,100547.88
2022-11-01T09:25:12.566Z,100554.81
2022-11-01T09:27:44.955Z,100545.09
2022-11-01T09:30:16.354Z,100555.69
2022-11-01T09:32:47.961Z,100553.84
2022-11-01T09:35:19.416Z,100563.53
2022-11-01T09:38:00.212Z,100561.94
2022-11-01T09:40:40.836Z,100560.28
2022-11-01T09:43:20.503Z,100570.22
2022-11-01T09:45:54.084Z,100563.28
2022-11-01T09:48:28.528Z,100579.41
2022-11-01T09:51:04.790Z,100566.22
2022-11-01T09:53:36.299Z,100576.41
2022-11-01T09:56:12.255Z,100586.44
2022-11-01T09:58:58.878Z,100584.72
2022-11-01T10:01:41.391Z,100583.28
2022-11-01T10:04:41.748Z,100600.44
2022-11-01T10:07:26.090Z,100600.66
2022-11-01T10:10:18.638Z,100607.94
2022-11-01T10:13:11.959Z,100617.88
2022-11-01T10:15:43.278Z,100617.94
2022-11-01T10:18:21.653Z,100611.88
2022-11-01T10:20:54.887Z,100629.16
2022-11-01T10:23:56.109Z,100628.06
2022-11-01T10:26:30.133Z,100618.84
2022-11-01T10:29:12.701Z,100619.03
2022-11-01T10:31:48.272Z,100614.22
2022-11-01T10:34:35.713Z,100635.22
2022-11-01T10:37:28.903Z,100640.53
2022-11-01T10:40:08.265Z,100636.91
2022-11-01T10:42:41.312Z,100643.63
2022-11-01T10:45:17.632Z,100640.91
2022-11-01T10:47:56.837Z,100643.81
2022-11-01T10:50:30.300Z,100648.53
2022-11-01T10:53:08.080Z,100633.00
2022-11-01T10:55:47.535Z,100641.63
2022-11-01T10:58:37.855Z,100646.06
2022-11-01T11:01:15.806Z,100652.00
2022-11-01T11:03:49.038Z,100658.97
2022-11-01T11:06:20.468Z,100665.91
2022-11-01T11:08:54.764Z,100664.03
2022-11-01T11:11:36.028Z,100673.03
2022-11-01T11:14:09.635Z,100668.53
2022-11-01T11:16:45.784Z,100663.38
2022-11-01T11:19:21.058Z,100678.47
2022-11-01T11:21:53.757Z,100679.44
2022-11-01T11:24:31.027Z,100674.06
2022-11-01T11:27:04.817Z,100675.78
2022-11-01T11:29:49.135Z,100675.16
2022-11-01T11:32:24.109Z,100675.16
2022-11-01T11:34:59.271Z,100679.50
2022-11-01T11:37:34.082Z,100673.19
2022-11-01T11:40:28.164Z,100700.03
2022-11-01T11:43:20.809Z,100694.69
2022-11-01T11:46:07.105Z,100699.31
2022-11-01T11:48:49.949Z,100697.66
2022-11-01T11:51:22.394Z,100703.09
2022-11-01T11:54:21.920Z,100711.25
2022-11-01T11:57:08.881Z,100712.97
2022-11-01T11:59:41.425Z,100712.97
2022-11-01T12:02:23.094Z,100707.91
2022-11-01T12:04:58.081Z,100709.34
2022-11-01T12:07:37.607Z,100716.47
2022-11-01T12:10:30.583Z,100726.25
2022-11-01T12:13:04.503Z,100723.56
2022-11-01T12:15:41.261Z,100742.44
2022-11-01T12:18:18.128Z,100737.94
2022-11-01T12:20:51.321Z,100737.94
2022-11-01T12:23:32.359Z,100743.31
2022-11-01T12:26:13.953Z,100732.56
2022-11-01T12:28:54.748Z,100737.22
2022-11-01T12:31:31.204Z,100745.22
2022-11-01T12:34:06.361Z,100746.94
2022-11-01T12:37:05.301Z,100753.84
2022-11-01T12:39:55.565Z,100742.72
2022-11-01T12:42:30.697Z,100753.31
2022-11-01T12:45:24.612Z,100763.34
2022-11-01T12:48:02.347Z,100748.53
2022-11-01T12:50:56.039Z,100753.84
2022-11-01T12:53:34.302Z,100758.63
2022-11-01T12:56:06.205Z,100768.38
2022-11-01T12:58:37.838Z,100775.41
2022-11-01T13:01:24.339Z,100777.16
2022-11-01T13:04:05.938Z,100777.94
2022-11-01T13:06:52.685Z,100772.66
2022-11-01T13:09:40.105Z,100773.66
2022-11-01T13:12:33.100Z,100777.44
2022-11-01T13:15:27.341Z,100777.44
2022-11-01T13:18:39.187Z,100767.34
2022-11-01T13:21:25.654Z,100765.81
2022-11-01T13:24:07.283Z,100773.81
2022-11-01T13:26:54.697Z,100777.44
2022-11-01T13:30:02.555Z,100771.06
2022-11-01T13:32:59.481Z,100778.97
2022-11-01T13:35:36.865Z,100788.41
2022-11-01T13:38:38.925Z,100781.13
2022-11-01T13:41:19.452Z,100787.31
2022-11-01T13:44:10.636Z,100792.81
2022-11-01T13:46:57.228Z,100789.63
2022-11-01T13:50:06.003Z,100804.94
2022-11-01T13:52:48.795Z,100790.72
2022-11-01T13:55:32.178Z,100803.88
2022-11-01T13:58:06.926Z,100797.31
2022-11-01T14:00:51.504Z,100804.72
2022-11-01T14:03:34.150Z,100801.03
2022-11-01T14:06:09.130Z,100803.78
2022-11-01T14:08:46.967Z,100805.66
2022-11-01T14:11:56.763Z,100803.84
2022-11-01T14:14:30.881Z,100808.56
2022-11-01T14:17:20.477Z,100801.81
2022-11-01T14:19:55.570Z,100812.13
2022-11-01T14:22:32.609Z,100815.25
2022-11-01T14:25:23.896Z,100812.28
2022-11-01T14:28:16.876Z,100820.16
2022-11-01T14:30:50.296Z,100820.75
2022-11-01T14:33:22.532Z,100823.06
2022-11-01T14:35:57.012Z,100821.72
2022-11-01T14:38:33.873Z,100822.94
2022-11-01T14:41:06.890Z,100821.53
2022-11-01T14:43:47.603Z,100817.50
2022-11-01T14:46:26.813Z,100816.97
2022-11-01T14:49:21.627Z,100820.97
2022-11-01T14:51:58.743Z,100824.91
2022-11-01T14:54:57.703Z,100825.28
2022-11-01T14:57:31.756Z,100823.88
2022-11-01T15:00:28.864Z,100831.41
2022-11-01T15:03:02.130Z,100826.53
2022-11-01T15:05:33.790Z,100835.69
2022-11-01T15:08:21.043Z,100836.94
2022-11-01T15:10:55.115Z,100838.97
2022-11-01T15:13:28.832Z,100832.16
2022-11-01T15:16:17.294Z,100841.44
2022-11-01T15:18:53.678Z,100843.59
2022-11-01T15:21:30.617Z,100835.84
2022-11-01T15:24:03.517Z,100844.22
2022-11-01T15:26:35.341Z,100840.09
2022-11-01T15:29:07.717Z,100844.84
2022-11-01T15:31:50.179Z,100843.50
2022-11-01T15:34:25.130Z,100843.88
2022-11-01T15:36:58.292Z,100842.38
2022-11-01T15:39:29.703Z,100839.28
2022-11-01T15:42:13.672Z,100822.00
2022-11-01T15:44:46.304Z,100843.59
2022-11-01T15:47:21.712Z,100844.00
2022-11-01T15:50:04.981Z,100836.41
2022-11-01T15:52:37.613Z,100831.56
2022-11-01T15:55:17.271Z,100842.56
2022-11-01T15:57:59.259Z,100842.09
2022-11-01T16:00:36.300Z,100838.78
2022-11-01T16:03:17.054Z,100837.41
2022-11-01T16:05:58.551Z,100839.53
2022-11-01T16:08:39.964Z,100846.09
2022-11-01T16:11:17.661Z,100846.41
2022-11-01T16:13:51.293Z,100832.59
2022-11-01T16:16:22.656Z,100839.91
2022-11-01T16:18:55.072Z,100828.78
2022-11-01T16:21:30.618Z,100836.03
2022-11-01T16:24:15.361Z,100842.53
2022-11-01T16:26:55.918Z,100840.16
2022-11-01T16:29:51.825Z,100851.00
2022-11-01T16:32:30.153Z,100850.34
2022-11-01T16:35:30.507Z,100851.44
2022-11-01T16:38:02.419Z,100855.25
2022-11-01T16:40:34.268Z,100862.44
2022-11-01T16:43:08.735Z,100854.59
2022-11-01T16:45:40.069Z,100858.34
2022-11-01T16:48:22.377Z,100863.81
2022-11-01T16:50:55.396Z,100870.16
2022-11-01T16:53:30.270Z,100865.91
2022-11-01T16:56:34.885Z,100866.09
2022-11-01T16:59:07.511Z,100884.91
2022-11-01T17:01:38.990Z,100877.97
2022-11-01T17:04:11.729Z,100877.22
2022-11-01T17:06:42.970Z,100884.44
2022-11-01T17:09:16.965Z,100873.94
2022-11-01T17:11:51.528Z,100879.38
2022-11-01T17:14:23.240Z,100892.72
2022-11-01T17:16:56.093Z,100875.19
2022-11-01T17:19:32.588Z,100885.81
2022-11-01T17:22:15.359Z,100880.78
2022-11-01T17:24:47.141Z,100889.50
2022-11-01T17:27:18.975Z,100884.38
2022-11-01T17:29:51.509Z,100898.47
2022-11-01T17:32:22.776Z,100889.72
2022-11-01T17:34:54.187Z,100900.34
2022-11-01T17:37:26.927Z,100895.94
2022-11-01T17:40:00.569Z,100897.78
2022-11-01T17:42:31.949Z,100904.03
2022-11-01T17:45:03.373Z,100899.63
2022-11-01T17:47:34.725Z,100903.19
2022-11-01T17:50:06.828Z,100873.34
2022-11-01T17:52:38.846Z,100891.88
2022-11-01T17:55:11.334Z,100880.47
2022-11-01T17:57:43.518Z,100882.19
2022-11-01T18:00:15.199Z,100896.44
2022-11-01T18:02:46.534Z,100894.69
2022-11-01T18:05:17.805Z,100892.94
2022-11-01T18:07:50.669Z,100890.38
2022-11-01T18:10:47.934Z,100893.94
2022-11-01T18:13:38.283Z,100901.97
2022-11-01T18:16:19.026Z,100904.69
2022-11-01T18:19:02.303Z,100906.53
2022-11-01T18:22:08.392Z,100904.00
2022-11-01T18:24:48.681Z,100907.56
2022-11-01T18:27:27.823Z,100913.00
2022-11-01T18:30:01.282Z,100905.16
2022-11-01T18:32:39.615Z,100914.00
2022-11-01T18:35:30.563Z,100907.00
2022-11-01T18:38:14.422Z,100910.59
2022-11-01T18:40:55.537Z,100905.34
2022-11-01T18:43:40.251Z,100906.28
2022-11-01T18:46:26.726Z,100901.91
2022-11-01T18:49:02.122Z,100898.44
2022-11-01T18:51:34.274Z,100905.56
2022-11-01T18:54:08.547Z,100900.31
2022-11-01T18:56:43.311Z,100900.38
2022-11-01T18:59:20.212Z,100907.47
2022-11-01T19:01:55.972Z,100911.94
2022-11-01T19:04:31.356Z,100904.84
2022-11-01T19:07:14.020Z,100906.63
2022-11-01T19:09:51.227Z,100912.84
2022-11-01T19:12:29.553Z,100904.91
2022-11-01T19:15:05.928Z,100912.88
2022-11-01T19:17:40.686Z,100910.25
2022-11-01T19:20:23.258Z,100916.50
2022-11-01T19:23:03.834Z,100918.28
2022-11-01T19:25:36.742Z,100917.41
2022-11-01T19:28:40.823Z,100925.41
2022-11-01T19:31:24.799Z,100915.72
2022-11-01T19:34:02.447Z,100915.84
2022-11-01T19:39:44.544Z,100932.59
2022-11-01T19:42:26.752Z,100927.31
2022-11-01T19:45:02.499Z,100933.50
2022-11-01T19:47:47.574Z,100930.88
2022-11-01T19:50:23.326Z,100931.72
2022-11-01T19:52:58.722Z,100933.47
2022-11-01T19:55:36.277Z,100933.47
2022-11-01T19:58:27.783Z,100936.97
2022-11-01T20:01:03.411Z,100930.78
2022-11-01T20:03:52.331Z,100929.00
2022-11-01T20:06:23.605Z,100936.97
2022-11-01T20:08:58.516Z,100934.31
2022-11-01T20:11:33.876Z,100942.28
2022-11-01T20:14:06.033Z,100938.78
2022-11-01T20:16:37.277Z,100943.19
2022-11-01T20:19:10.878Z,100943.16
2022-11-01T20:21:45.101Z,100936.06
2022-11-01T20:24:16.440Z,100937.84
2022-11-01T20:26:47.690Z,100940.50
2022-11-01T20:29:18.979Z,100944.94
2022-11-01T20:31:50.311Z,100947.59
2022-11-01T20:34:21.993Z,100934.44
2022-11-01T20:37:14.863Z,100954.66
2022-11-01T20:39:44.550Z,100945.91
2022-11-01T20:42:15.818Z,100957.25
2022-11-01T20:44:47.062Z,100958.97
2022-11-01T20:47:18.317Z,100965.09
2022-11-01T20:49:49.656Z,100951.81
2022-11-01T20:55:13.148Z,100956.09
2022-11-01T20:57:44.759Z,100953.41
2022-11-01T21:00:18.363Z,100937.56
2022-11-01T21:02:50.980Z,100949.84
2022-11-01T21:05:28.062Z,100954.19
2022-11-01T21:08:22.713Z,100943.53
2022-11-01T21:10:59.450Z,100946.13
2022-11-01T21:13:41.681Z,100947.88
2022-11-01T21:16:21.413Z,100947.84
2022-11-01T21:18:56.336Z,100947.78
2022-11-01T21:21:32.142Z,100949.53
2022-11-01T21:24:28.274Z,100930.16
2022-11-01T21:27:11.719Z,100937.16
2022-11-01T21:29:45.985Z,100926.63
2022-11-01T21:32:25.187Z,100930.97
2022-11-01T21:34:57.864Z,100918.56
2022-11-01T21:37:29.953Z,100927.41
2022-11-01T21:40:06.731Z,100919.44
2022-11-01T21:42:38.908Z,100921.19
2022-11-01T21:45:29.584Z,100918.53
2022-11-01T21:48:13.943Z,100915.00
2022-11-01T21:50:45.227Z,100921.13
2022-11-01T21:53:16.476Z,100920.25
2022-11-01T21:55:47.960Z,100921.13
2022-11-01T21:58:21.668Z,100916.69
2022-11-01T22:00:53.056Z,100921.97
2022-11-01T22:03:24.354Z,100915.81
2022-11-01T22:05:55.765Z,100910.44
2022-11-01T22:08:27.020Z,100920.19
2022-11-01T22:10:58.281Z,100911.31
2022-11-01T22:13:29.522Z,100921.91
2022-11-01T22:16:00.879Z,100908.63
2022-11-01T22:18:32.142Z,100904.25
2022-11-01T22:21:03.514Z,100896.28
2022-11-01T22:23:34.774Z,100900.69
2022-11-01T22:26:06.022Z,100883.94
2022-11-01T22:28:37.739Z,100890.09
2022-11-01T22:31:09.286Z,100883.84
2022-11-01T22:33:40.700Z,100883.88
2022-11-01T22:36:38.675Z,100879.38
2022-11-01T22:39:20.852Z,100889.09
2022-11-01T22:41:52.628Z,100886.44
2022-11-01T22:44:30.703Z,100883.81
2022-11-01T22:47:02.773Z,100888.22
2022-11-01T22:49:36.539Z,100881.16
2022-11-01T22:52:23.639Z,100882.03
2022-11-01T22:55:03.146Z,100864.47
2022-11-01T22:57:38.466Z,100869.78
2022-11-01T23:00:31.336Z,100882.88
2022-11-01T23:03:21.444Z,100872.19
2022-11-01T23:05:54.510Z,100876.63
2022-11-01T23:08:32.339Z,100861.69
2022-11-01T23:11:04.505Z,100859.81
2022-11-01T23:14:14.107Z,100865.09
2022-11-01T23:16:45.374Z,100870.44
2022-11-01T23:19:16.838Z,100862.59
2022-11-01T23:21:48.193Z,100868.78
2022-11-01T23:24:19.447Z,100867.91
2022-11-01T23:26:50.778Z,100866.16
2022-11-01T23:29:22.111Z,100860.06
2022-11-01T23:31:53.384Z,100860.91
2022-11-01T23:34:25.075Z,100839.84
2022-11-01T23:36:56.451Z,100868.03
2022-11-01T23:39:34.167Z,100864.50
2022-11-01T23:42:06.067Z,100856.56
2022-11-01T23:44:39.889Z,100861.00
2022-11-01T23:47:31.048Z,100863.69
2022-11-01T23:50:32.358Z,100868.13
2022-11-01T23:53:09.560Z,100859.31
2022-11-01T23:55:47.523Z,100857.53
